Time;durP1;ratioP1;P1;durP2;ratioP2;P2;SDS_P1;SDS_P2;PMS_P1;PMS_P2;Temp;Humidity;BMP_temperature;BMP_pressure;BME280_temperature;BME280_humidity;BME280_pressure;Samples;Min_cycle;Max_cycle;Signal;HPM_P1;HPM_P2
2022/04/15 00:02:24;;;;;;;5.88;2.90;;;;;;;9.02;42.98;95249.38;5113226;27;20473;-69
2022/04/15 00:04:49;;;;;;;6.05;3.35;;;;;;;8.80;43.56;95254.38;5131917;27;20039;-69
2022/04/15 00:07:15;;;;;;;5.75;2.80;;;;;;;8.76;43.80;95256.38;5113178;27;20012;-69
2022/04/15 00:09:41;;;;;;;4.47;2.88;;;;;;;8.76;43.53;95258.97;5113354;27;20035;-69
2022/04/15 00:12:10;;;;;;;4.50;2.97;;;;;;;8.67;43.95;95259.59;5130335;27;20019;-69
2022/04/15 00:14:35;;;;;;;4.55;3.20;;;;;;;8.67;43.81;95260.44;5131775;27;20038;-69
2022/04/15 00:17:01;;;;;;;4.28;3.17;;;;;;;8.66;43.95;95248.41;5113069;27;20023;-69
2022/04/15 00:19:26;;;;;;;4.55;3.00;;;;;;;8.63;44.55;95266.72;5130248;27;20028;-69
2022/04/15 00:21:52;;;;;;;4.63;3.15;;;;;;;8.63;44.63;95260.72;5130121;27;20032;-70
2022/04/15 00:24:17;;;;;;;6.82;3.22;;;;;;;8.63;44.76;95266.72;5129914;27;20042;-69
2022/04/15 00:26:43;;;;;;;6.97;3.40;;;;;;;8.49;45.00;95267.66;5111976;27;20084;-69
2022/04/15 00:29:08;;;;;;;5.60;3.42;;;;;;;8.55;44.88;95273.38;5112803;27;20031;-69
2022/04/15 00:31:34;;;;;;;5.13;3.08;;;;;;;8.46;45.19;95267.03;5112837;27;20394;-69
2022/04/15 00:34:00;;;;;;;4.30;3.30;;;;;;;8.45;44.79;95276.56;5131377;27;20113;-69
2022/04/15 00:36:26;;;;;;;5.90;3.72;;;;;;;8.45;44.83;95268.81;5129598;27;20034;-69
2022/04/15 00:38:51;;;;;;;4.00;2.95;;;;;;;8.43;45.13;95268.06;5129888;27;20068;-69
2022/04/15 00:41:17;;;;;;;5.50;3.75;;;;;;;8.33;45.26;95263.59;5129710;27;20038;-69
2022/04/15 00:43:42;;;;;;;5.75;3.35;;;;;;;8.37;45.51;95259.88;5112645;27;20472;-69
2022/04/15 00:46:08;;;;;;;5.32;3.50;;;;;;;8.28;45.51;95254.38;5131056;27;20015;-69
2022/04/15 00:48:36;;;;;;;5.07;3.58;;;;;;;8.23;46.03;95264.19;5129918;27;20088;-69
2022/04/15 00:51:03;;;;;;;5.20;3.60;;;;;;;8.22;46.10;95274.69;5113049;27;20098;-69
2022/04/15 00:53:29;;;;;;;4.95;3.55;;;;;;;8.17;46.26;95280.16;5112543;27;20023;-69
2022/04/15 00:56:01;;;;;;;6.55;3.97;;;;;;;8.09;46.22;95264.28;5129594;27;20055;-69
2022/04/15 00:58:27;;;;;;;5.75;3.72;;;;;;;8.00;46.76;95268.31;5096650;28;20076;-69
2022/04/15 01:00:53;;;;;;;6.38;3.53;;;;;;;7.98;47.08;95265.00;5129659;28;20450;-69
2022/04/15 01:03:21;;;;;;;5.68;3.97;;;;;;;7.81;47.53;95265.25;5095553;28;20031;-69
2022/04/15 01:05:47;;;;;;;5.88;3.47;;;;;;;7.64;47.60;95243.09;5112853;28;20152;-69
2022/04/15 01:08:12;;;;;;;6.45;3.88;;;;;;;7.56;48.57;95274.59;5130689;27;20243;-69
2022/04/15 01:10:38;;;;;;;6.05;3.65;;;;;;;7.50;48.57;95269.00;5112536;28;20027;-69
2022/04/15 01:13:05;;;;;;;5.60;3.80;;;;;;;7.49;48.99;95278.47;5095395;28;20027;-69
2022/04/15 01:15:30;;;;;;;4.95;3.47;;;;;;;7.34;49.08;95272.53;5131263;27;20069;-69
2022/04/15 01:17:56;;;;;;;7.10;4.07;;;;;;;7.32;49.33;95270.97;5112198;28;20035;-69
2022/04/15 01:20:21;;;;;;;5.32;3.50;;;;;;;7.23;49.62;95272.38;5129756;28;20035;-69
2022/04/15 01:22:48;;;;;;;5.40;3.60;;;;;;;7.23;49.66;95272.38;5129330;28;20031;-69
2022/04/15 01:25:17;;;;;;;5.28;3.50;;;;;;;7.07;50.10;95258.75;5112616;28;20132;-69
2022/04/15 01:27:44;;;;;;;6.40;4.10;;;;;;;7.06;50.17;95268.25;5112710;28;20027;-69
2022/04/15 01:30:17;;;;;;;5.40;3.75;;;;;;;7.03;50.34;95267.63;5129595;28;20485;-69
2022/04/15 01:32:43;;;;;;;5.20;3.70;;;;;;;7.00;50.70;95270.41;5112496;28;20023;-69
2022/04/15 01:35:09;;;;;;;7.32;3.50;;;;;;;6.96;50.72;95264.56;5095366;28;20507;-69
2022/04/15 01:37:35;;;;;;;4.35;3.63;;;;;;;6.85;51.21;95261.81;5114355;27;20043;-69
2022/04/15 01:40:02;;;;;;;7.28;3.60;;;;;;;6.74;51.17;95253.88;5133406;27;20058;-69
2022/04/15 01:42:27;;;;;;;6.28;3.63;;;;;;;6.77;50.99;95264.88;5134401;27;20019;-69
2022/04/15 01:44:53;;;;;;;4.85;3.28;;;;;;;6.80;51.03;95261.25;5134806;27;20031;-69
2022/04/15 01:47:18;;;;;;;5.05;3.50;;;;;;;6.71;51.20;95252.31;5133109;27;20030;-69
2022/04/15 01:49:44;;;;;;;5.50;3.88;;;;;;;6.75;50.82;95250.41;5133240;27;20469;-69
2022/04/15 01:52:09;;;;;;;4.93;3.25;;;;;;;6.79;50.98;95244.94;5134263;27;20027;-69
2022/04/15 01:54:35;;;;;;;4.57;3.20;;;;;;;6.67;51.42;95231.03;5133146;27;20023;-69
2022/04/15 01:57:00;;;;;;;4.78;3.28;;;;;;;6.69;50.92;95242.09;5115825;27;20377;-69
2022/04/15 01:59:26;;;;;;;6.93;3.22;;;;;;;6.66;50.83;95237.13;5115947;27;20036;-70
2022/04/15 02:01:54;;;;;;;7.70;3.58;;;;;;;6.61;51.33;95244.31;5132803;27;20027;-69
2022/04/15 02:04:21;;;;;;;4.93;3.08;;;;;;;6.62;51.40;95252.88;5116088;27;20073;-69
2022/04/15 02:06:47;;;;;;;5.28;3.53;;;;;;;6.63;51.27;95254.53;5132802;27;20076;-68
2022/04/15 02:09:12;;;;;;;5.00;3.70;;;;;;;6.63;51.16;95252.81;5132584;27;20039;-69
2022/04/15 02:11:38;;;;;;;6.88;3.65;;;;;;;6.60;51.20;95247.81;5133945;27;20027;-69
2022/04/15 02:14:03;;;;;;;4.72;3.22;;;;;;;6.61;51.21;95246.91;5132682;27;20034;-69
2022/04/15 02:16:28;;;;;;;4.72;3.17;;;;;;;6.54;51.47;95242.19;5132553;27;20027;-69
2022/04/15 02:18:54;;;;;;;6.45;3.45;;;;;;;6.57;51.13;95239.41;5133636;27;20496;-69
2022/04/15 02:21:19;;;;;;;4.63;3.20;;;;;;;6.54;51.68;95248.16;5132526;27;20024;-68
2022/04/15 02:23:45;;;;;;;5.53;3.30;;;;;;;6.49;51.63;95239.88;5132349;27;20031;-69
2022/04/15 02:26:10;;;;;;;4.47;3.40;;;;;;;6.35;51.98;95240.72;5132378;27;20031;-68
2022/04/15 02:28:35;;;;;;;7.25;3.22;;;;;;;6.18;52.08;95246.03;5115322;27;20401;-69
2022/04/15 02:31:01;;;;;;;4.15;3.10;;;;;;;6.08;52.63;95248.31;5132347;27;20481;-68
2022/04/15 02:33:26;;;;;;;8.55;3.33;;;;;;;6.03;52.88;95250.34;5132304;27;20481;-69
2022/04/15 02:35:52;;;;;;;6.40;3.50;;;;;;;5.97;52.77;95255.84;5132278;27;20075;-69
2022/04/15 02:38:17;;;;;;;8.18;3.97;;;;;;;5.82;53.14;95245.47;5132138;27;20043;-69
2022/04/15 02:40:43;;;;;;;5.90;3.85;;;;;;;5.93;52.97;95246.59;5097987;27;20116;-69
2022/04/15 02:43:09;;;;;;;6.97;3.88;;;;;;;5.90;52.94;95246.78;5132104;27;20031;-68
2022/04/15 02:45:34;;;;;;;7.20;3.85;;;;;;;5.98;53.48;95248.00;5115148;27;20478;-69
2022/04/15 02:47:59;;;;;;;5.22;3.45;;;;;;;5.95;53.18;95247.38;5131175;27;20031;-69
2022/04/15 02:50:25;;;;;;;7.90;3.22;;;;;;;6.01;52.50;95244.44;5133428;27;20032;-69
2022/04/15 02:52:50;;;;;;;4.95;3.17;;;;;;;6.03;51.98;95255.50;5131904;27;20023;-69
2022/04/15 02:55:16;;;;;;;4.40;2.78;;;;;;;5.99;52.03;95246.25;5114992;27;20035;-69
2022/04/15 02:57:41;;;;;;;7.40;3.60;;;;;;;6.05;51.99;95251.09;5131775;27;20039;-68
2022/04/15 03:00:07;;;;;;;3.78;3.00;;;;;;;6.13;52.01;95248.91;5114771;27;20485;-70
2022/04/15 03:02:32;;;;;;;4.45;2.90;;;;;;;6.15;51.76;95254.78;5131668;27;20031;-71
2022/04/15 03:04:58;;;;;;;4.50;3.03;;;;;;;6.18;52.01;95252.00;5133181;27;20035;-69
2022/04/15 03:07:24;;;;;;;3.38;2.78;;;;;;;6.18;51.31;95256.34;5131595;27;20099;-69
2022/04/15 03:09:49;;;;;;;4.57;2.80;;;;;;;6.28;51.51;95254.06;5131671;27;20035;-68
2022/04/15 03:12:15;;;;;;;4.28;2.92;;;;;;;6.29;51.71;95255.72;5131569;27;20034;-69
2022/04/15 03:14:41;;;;;;;5.18;3.50;;;;;;;6.22;51.94;95253.50;5132930;27;20400;-69
2022/04/15 03:17:07;;;;;;;4.55;2.90;;;;;;;6.17;51.92;95240.03;5114451;27;20035;-69
2022/04/15 03:19:32;;;;;;;4.57;2.55;;;;;;;6.12;52.24;95236.91;5132926;27;20038;-69
2022/04/15 03:21:58;;;;;;;4.78;3.35;;;;;;;6.19;52.23;95248.53;5132517;27;20031;-69
2022/04/15 03:24:23;;;;;;;5.05;3.15;;;;;;;6.15;52.37;95239.28;5131305;27;20031;-69
2022/04/15 03:26:48;;;;;;;4.30;3.00;;;;;;;6.11;52.38;95240.41;5132687;27;20035;-69
2022/04/15 03:29:15;;;;;;;4.20;3.10;;;;;;;6.11;52.39;95244.75;5131257;27;20039;-69
2022/04/15 03:31:41;;;;;;;4.60;2.95;;;;;;;6.00;52.79;95242.78;5114040;27;20031;-69
2022/04/15 03:34:06;;;;;;;4.90;3.00;;;;;;;6.00;52.79;95248.75;5131174;27;20400;-69
2022/04/15 03:36:32;;;;;;;5.20;3.03;;;;;;;6.04;52.97;95254.56;5130849;27;20043;-68
2022/04/15 03:38:57;;;;;;;4.47;3.13;;;;;;;5.97;53.47;95261.84;5113886;27;20516;-68
2022/04/15 03:41:23;;;;;;;5.72;3.10;;;;;;;5.90;53.33;95251.94;5130905;27;20023;-69
2022/04/15 03:43:50;;;;;;;4.97;3.42;;;;;;;5.93;53.57;95262.06;5132187;27;20043;-69
2022/04/15 03:46:15;;;;;;;7.32;3.25;;;;;;;5.85;53.57;95252.22;5113792;27;20023;-69
2022/04/15 03:48:41;;;;;;;4.45;3.40;;;;;;;5.86;53.68;95260.78;5130881;27;20088;-69
2022/04/15 03:51:08;;;;;;;7.53;3.42;;;;;;;5.84;54.10;95268.56;5096639;27;20030;-69
2022/04/15 03:53:34;;;;;;;4.35;2.95;;;;;;;5.77;53.92;95262.94;5130656;27;20406;-68
2022/04/15 03:56:00;;;;;;;4.35;3.10;;;;;;;5.75;54.30;95259.63;5113652;27;20064;-69
2022/04/15 03:58:25;;;;;;;4.88;3.05;;;;;;;5.79;54.29;95263.69;5130666;27;20026;-69
2022/04/15 04:00:51;;;;;;;5.10;3.17;;;;;;;5.78;54.23;95266.34;5113116;27;20417;-69
2022/04/15 04:03:16;;;;;;;6.35;3.38;;;;;;;5.67;54.28;95253.25;5130533;27;20027;-68
2022/04/15 04:05:42;;;;;;;4.45;3.30;;;;;;;5.71;53.79;95268.47;5130370;27;20076;-69
2022/04/15 04:08:07;;;;;;;4.50;3.05;;;;;;;5.82;53.72;95275.56;5113405;27;20119;-69
2022/04/15 04:10:33;;;;;;;4.50;2.78;;;;;;;5.88;53.81;95276.97;5132112;27;20023;-69
2022/04/15 04:12:59;;;;;;;4.18;2.97;;;;;;;5.85;53.57;95275.41;5130385;27;20242;-69
2022/04/15 04:15:24;;;;;;;5.47;3.15;;;;;;;5.89;53.53;95276.06;5113208;27;20031;-69
2022/04/15 04:17:50;;;;;;;5.22;3.13;;;;;;;5.91;53.46;95276.81;5130270;27;20098;-69
2022/04/15 04:20:17;;;;;;;3.42;2.83;;;;;;;5.91;53.37;95271.66;5130435;27;20492;-69
2022/04/15 04:22:42;;;;;;;5.85;3.42;;;;;;;5.97;53.96;95279.88;5096247;27;20413;-69
2022/04/15 04:25:08;;;;;;;4.97;3.30;;;;;;;6.02;53.11;95269.31;5113317;27;20035;-69
2022/04/15 04:27:36;;;;;;;5.40;3.08;;;;;;;6.03;53.49;95273.56;5130066;27;20031;-68
2022/04/15 04:30:02;;;;;;;4.80;3.22;;;;;;;6.06;53.02;95268.22;5130111;27;20038;-69
2022/04/15 04:32:27;;;;;;;3.90;2.80;;;;;;;6.15;52.86;95265.09;5113018;27;20031;-69
2022/04/15 04:34:53;;;;;;;3.85;3.08;;;;;;;6.27;52.76;95273.88;5095953;27;20043;-69
2022/04/15 04:37:18;;;;;;;5.75;3.05;;;;;;;6.49;52.08;95270.84;5124160;27;20043;-69
2022/04/15 04:39:44;;;;;;;5.72;3.25;;;;;;;6.98;50.97;95282.56;5113726;27;20035;-69
2022/04/15 04:42:09;;;;;;;4.05;3.05;;;;;;;7.75;48.38;95261.31;5123311;27;20502;-69
2022/04/15 04:44:35;;;;;;;4.35;3.33;;;;;;;8.80;46.15;95281.13;5120071;27;20081;-69
2022/04/15 04:47:00;;;;;;;5.15;3.40;;;;;;;9.16;44.79;95282.09;5099913;27;20402;-69
2022/04/15 04:49:26;;;;;;;6.75;3.05;;;;;;;9.17;44.81;95283.78;5134122;27;20023;-69
2022/04/15 04:51:51;;;;;;;4.53;3.30;;;;;;;9.37;44.53;95298.75;5129177;27;20023;-69
2022/04/15 04:54:17;;;;;;;4.03;3.08;;;;;;;9.49;44.05;95293.66;5130907;27;20023;-69
2022/04/15 04:56:44;;;;;;;4.95;3.40;;;;;;;9.92;43.17;95287.97;5129064;27;20099;-69
2022/04/15 04:59:09;;;;;;;4.25;3.00;;;;;;;10.81;41.32;95290.03;5129098;28;20102;-69
2022/04/15 05:01:34;;;;;;;3.70;3.00;;;;;;;11.74;39.21;95288.88;5112060;28;20031;-69
2022/04/15 05:04:00;;;;;;;4.47;3.13;;;;;;;12.17;38.02;95298.44;5129038;27;20042;-69
2022/04/15 05:06:25;;;;;;;6.07;3.05;;;;;;;12.63;36.96;95289.47;5125973;27;20067;-68
2022/04/15 05:08:51;;;;;;;6.30;3.50;;;;;;;13.13;36.04;95281.75;5130697;27;20040;-69
2022/04/15 05:11:17;;;;;;;6.95;3.00;;;;;;;13.97;34.51;95277.03;5130585;27;20031;-70
2022/04/15 05:13:42;;;;;;;4.47;2.92;;;;;;;14.12;33.82;95259.16;5095602;28;20043;-68
2022/04/15 05:16:07;;;;;;;4.10;2.63;;;;;;;14.31;33.62;95274.81;5120819;27;20019;-69
2022/04/15 05:18:33;;;;;;;3.35;2.40;;;;;;;13.75;34.60;95285.94;5129270;27;20028;-69
2022/04/15 05:20:58;;;;;;;4.68;2.88;;;;;;;12.84;36.04;95281.59;5129372;27;20038;-71
2022/04/15 05:23:24;;;;;;;4.60;2.95;;;;;;;12.19;37.48;95291.34;5125905;27;20031;-68
2022/04/15 05:25:49;;;;;;;5.20;2.97;;;;;;;11.88;37.76;95291.22;5125444;27;20034;-68
2022/04/15 05:28:14;;;;;;;5.53;3.42;;;;;;;11.63;38.30;95292.31;5133209;27;20468;-68
2022/04/15 05:30:40;;;;;;;3.05;2.67;;;;;;;11.46;38.45;95285.84;5134025;27;20034;-69
2022/04/15 05:33:05;;;;;;;4.55;2.55;;;;;;;11.58;38.72;95289.25;5133074;27;20023;-69
2022/04/15 05:35:31;;;;;;;3.80;2.90;;;;;;;11.60;38.85;95285.56;5132068;27;20027;-69
2022/04/15 05:37:56;;;;;;;4.45;2.92;;;;;;;11.51;38.93;95283.72;5131437;27;20096;-69
2022/04/15 05:40:22;;;;;;;3.22;2.70;;;;;;;11.57;38.74;95285.00;5115520;27;20028;-69
2022/04/15 05:42:48;;;;;;;3.40;2.65;;;;;;;11.51;39.05;95286.31;5134582;27;20079;-69
2022/04/15 05:45:13;;;;;;;3.83;2.80;;;;;;;11.60;38.63;95280.38;5115890;27;20106;-69
2022/04/15 05:47:39;;;;;;;34.85;5.68;;;;;;;11.33;39.87;95272.97;5132527;27;20019;-69
2022/04/15 05:50:06;;;;;;;13.88;4.72;;;;;;;11.21;40.01;95286.94;5130077;27;20514;-68
2022/04/15 05:52:32;;;;;;;12.80;4.57;;;;;;;11.39;39.48;95282.06;5132164;27;20819;-70
2022/04/15 05:54:58;;;;;;;9.38;4.38;;;;;;;11.70;38.46;95277.88;5101985;28;20501;-69
2022/04/15 05:57:23;;;;;;;9.38;4.05;;;;;;;11.79;38.16;95274.53;5127691;27;20023;-70
2022/04/15 05:59:49;;;;;;;11.27;4.10;;;;;;;11.83;37.97;95288.13;5133269;27;20031;-71
2022/04/15 06:02:14;;;;;;;10.13;4.28;;;;;;;11.76;37.83;95279.16;5116422;27;20125;-71
2022/04/15 06:04:39;;;;;;;10.57;4.78;;;;;;;11.91;37.85;95283.16;5117505;27;20035;-71
2022/04/15 06:07:05;;;;;;;6.65;4.70;;;;;;;11.90;37.52;95278.09;5129567;27;20019;-71
2022/04/15 06:09:31;;;;;;;9.48;4.78;;;;;;;11.93;37.85;95275.25;5134246;27;20412;-72
2022/04/15 06:11:56;;;;;;;14.38;5.30;;;;;;;12.17;38.70;95273.22;5133191;27;20023;-72
2022/04/15 06:14:22;;;;;;;12.10;5.70;;;;;;;12.19;38.23;95273.09;5116107;27;20043;-72
2022/04/15 06:16:48;;;;;;;9.32;6.00;;;;;;;12.38;38.20;95281.06;5132744;27;20023;-72
2022/04/15 06:19:14;;;;;;;14.43;5.75;;;;;;;12.43;38.57;95278.09;5116154;27;20038;-72
2022/04/15 06:21:40;;;;;;;14.57;6.13;;;;;;;12.58;38.46;95260.34;5133015;27;20037;-72
2022/04/15 06:24:08;;;;;;;11.38;5.43;;;;;;;12.70;37.67;95273.19;5131206;27;20071;-72
2022/04/15 06:26:34;;;;;;;13.65;5.90;;;;;;;12.75;37.71;95276.19;5115418;27;20041;-72
2022/04/15 06:28:59;;;;;;;7.65;4.80;;;;;;;12.70;37.55;95280.16;5114106;27;20038;-72
2022/04/15 06:31:25;;;;;;;8.80;4.57;;;;;;;12.81;37.94;95274.84;5126455;27;20023;-72
2022/04/15 06:33:52;;;;;;;8.35;5.60;;;;;;;12.90;37.75;95276.72;5154055;27;20031;-72
2022/04/15 06:36:18;;;;;;;9.85;4.95;;;;;;;12.83;37.73;95266.94;5136419;27;20022;-72
2022/04/15 06:38:43;;;;;;;10.02;4.88;;;;;;;13.06;37.37;95285.81;5132336;27;20114;-72
2022/04/15 06:41:09;;;;;;;8.85;5.20;;;;;;;13.06;37.26;95280.59;5121648;27;20473;-72
2022/04/15 06:43:35;;;;;;;12.05;5.30;;;;;;;13.05;37.48;95273.75;5112056;28;20055;-72
2022/04/15 06:46:03;;;;;;;10.13;4.93;;;;;;;13.08;37.68;95270.88;5120733;27;20076;-72
2022/04/15 06:48:29;;;;;;;13.63;7.10;;;;;;;13.22;37.33;95277.53;5127672;27;20533;-72
2022/04/15 06:50:54;;;;;;;15.32;5.43;;;;;;;13.32;38.13;95265.38;5132986;27;20035;-72
2022/04/15 06:53:23;;;;;;;10.18;5.13;;;;;;;13.17;37.52;95272.69;5123459;27;20020;-72
2022/04/15 06:55:51;;;;;;;16.48;5.47;;;;;;;13.28;37.96;95270.00;5118437;27;20084;-72
2022/04/15 06:58:17;;;;;;;13.27;4.97;;;;;;;13.33;37.44;95274.84;5126791;27;20074;-72
2022/04/15 07:00:42;;;;;;;14.13;6.10;;;;;;;13.37;37.67;95271.00;5095348;28;20529;-70
2022/04/15 07:03:09;;;;;;;7.95;5.45;;;;;;;13.45;37.75;95262.50;5078475;28;20028;-68
2022/04/15 07:05:34;;;;;;;10.32;5.32;;;;;;;13.58;37.29;95260.50;5113079;27;20332;-68
2022/04/15 07:08:00;;;;;;;14.60;6.22;;;;;;;13.59;37.58;95262.13;5111994;28;20489;-67
2022/04/15 07:10:25;;;;;;;10.20;5.82;;;;;;;13.79;37.09;95262.97;5094392;28;20466;-68
2022/04/15 07:12:50;;;;;;;13.85;6.13;;;;;;;13.85;36.84;95265.06;5128785;27;20558;-67
2022/04/15 07:15:16;;;;;;;15.27;6.20;;;;;;;13.88;37.96;95258.75;5115245;27;20028;-68
2022/04/15 07:17:41;;;;;;;11.52;7.78;;;;;;;14.08;37.21;95247.34;5144893;27;20468;-68
2022/04/15 07:20:07;;;;;;;11.52;6.97;;;;;;;14.12;36.32;95234.81;5132659;27;20028;-67
2022/04/15 07:22:33;;;;;;;9.52;5.10;;;;;;;14.25;35.44;95248.44;5130306;27;20024;-69
2022/04/15 07:24:58;;;;;;;10.38;5.20;;;;;;;14.34;33.72;95252.00;5130984;27;20034;-68
2022/04/15 07:27:24;;;;;;;13.80;6.05;;;;;;;14.33;35.11;95251.16;5125931;27;20034;-68
2022/04/15 07:29:49;;;;;;;9.82;5.88;;;;;;;14.52;34.10;95260.81;5129804;27;20188;-68
2022/04/15 07:32:25;;;;;;;12.65;5.95;;;;;;;14.65;33.75;95257.88;5117899;27;20489;-68
2022/04/15 07:34:51;;;;;;;8.60;5.38;;;;;;;14.54;33.38;95258.84;5126060;27;20119;-68
2022/04/15 07:37:16;;;;;;;16.15;5.70;;;;;;;14.48;33.41;95254.16;5097222;28;20051;-68
2022/04/15 07:39:42;;;;;;;11.27;5.35;;;;;;;14.63;33.58;95252.81;5106708;27;20031;-68
2022/04/15 07:42:07;;;;;;;10.80;5.80;;;;;;;14.75;33.03;95248.22;5128226;27;20039;-68
2022/04/15 07:44:33;;;;;;;9.10;5.25;;;;;;;14.81;32.66;95239.81;5114340;27;20511;-68
2022/04/15 07:46:59;;;;;;;12.20;6.35;;;;;;;14.80;32.79;95238.19;5130875;27;20089;-68
2022/04/15 07:49:24;;;;;;;11.13;5.30;;;;;;;14.90;32.75;95230.28;5113575;27;20119;-68
2022/04/15 07:51:50;;;;;;;11.65;5.70;;;;;;;15.15;32.73;95242.69;5094205;28;20028;-68
2022/04/15 07:54:16;;;;;;;7.00;4.88;;;;;;;15.38;32.05;95239.72;5111218;28;20046;-68
2022/04/15 07:56:41;;;;;;;9.90;5.20;;;;;;;15.50;31.16;95235.94;5110998;28;20046;-68
2022/04/15 07:59:07;;;;;;;9.02;5.30;;;;;;;15.67;32.17;95236.09;5094039;28;20035;-68
2022/04/15 08:01:32;;;;;;;11.10;5.15;;;;;;;15.73;31.01;95230.31;5110994;28;20019;-68
2022/04/15 08:03:58;;;;;;;7.57;5.32;;;;;;;15.96;32.11;95231.50;5110895;28;20409;-68
2022/04/15 08:06:24;;;;;;;11.95;5.25;;;;;;;16.07;30.90;95227.81;5094011;28;20477;-68
2022/04/15 08:08:52;;;;;;;11.95;5.78;;;;;;;16.15;31.72;95227.09;5110788;28;20036;-68
2022/04/15 08:11:18;;;;;;;12.68;5.55;;;;;;;16.20;31.41;95227.47;5094298;28;20036;-68
2022/04/15 08:13:43;;;;;;;7.82;5.38;;;;;;;16.22;31.57;95223.72;5093684;28;20028;-68
2022/04/15 08:16:09;;;;;;;10.75;5.40;;;;;;;16.30;31.49;95221.16;5111953;28;20031;-68
2022/04/15 08:18:34;;;;;;;10.02;5.13;;;;;;;16.48;31.87;95223.72;5093688;28;20038;-69
2022/04/15 08:21:00;;;;;;;9.73;5.28;;;;;;;16.49;31.01;95217.53;5093765;28;20039;-68
2022/04/15 08:23:26;;;;;;;12.88;5.38;;;;;;;16.65;31.50;95221.22;5093457;28;20513;-68
2022/04/15 08:25:51;;;;;;;7.00;4.53;;;;;;;16.77;30.98;95214.78;5093618;28;20106;-68
2022/04/15 08:28:17;;;;;;;9.80;4.70;;;;;;;16.70;30.71;95216.34;5111643;28;20076;-68
2022/04/15 08:30:42;;;;;;;10.05;4.68;;;;;;;16.62;31.94;95217.09;5111730;28;20028;-68
2022/04/15 08:33:08;;;;;;;11.68;4.80;;;;;;;16.70;31.43;95216.34;5111651;28;20406;-68
2022/04/15 08:35:34;;;;;;;7.05;4.47;;;;;;;16.69;30.74;95204.22;5112120;28;20043;-70
2022/04/15 08:37:59;;;;;;;9.20;4.55;;;;;;;16.83;30.00;95208.91;5093499;28;20047;-69
2022/04/15 08:40:31;;;;;;;5.82;3.70;;;;;;;16.92;29.52;95210.59;5110634;28;20537;-68
2022/04/15 08:42:57;;;;;;;9.52;4.80;;;;;;;17.01;28.96;95213.25;5110080;28;20035;-68
2022/04/15 08:45:22;;;;;;;8.90;4.35;;;;;;;16.95;29.13;95212.09;5110405;28;20110;-68
2022/04/15 08:47:48;;;;;;;8.10;4.65;;;;;;;16.96;29.94;95201.41;5092449;28;20034;-68
2022/04/15 08:50:14;;;;;;;7.40;4.95;;;;;;;17.12;30.42;95194.59;5093417;28;20040;-68
2022/04/15 08:52:40;;;;;;;5.85;3.85;;;;;;;17.33;30.36;95194.22;5110118;28;20535;-68
2022/04/15 08:55:06;;;;;;;9.75;4.30;;;;;;;17.41;29.63;95184.53;5093461;28;20120;-68
2022/04/15 08:57:32;;;;;;;8.48;3.80;;;;;;;17.58;29.01;95189.84;5110078;28;20114;-68
2022/04/15 08:59:57;;;;;;;7.80;4.50;;;;;;;17.71;29.48;95182.28;5111716;28;20042;-68
2022/04/15 09:02:37;;;;;;;7.30;4.57;;;;;;;17.85;28.09;95178.25;5093070;28;20108;-68
2022/04/15 09:05:03;;;;;;;8.25;4.40;;;;;;;17.96;27.57;95171.84;5111654;28;20028;-68
2022/04/15 09:07:32;;;;;;;11.38;3.90;;;;;;;17.94;26.88;95171.19;5093321;28;20039;-68
2022/04/15 09:09:58;;;;;;;8.93;4.60;;;;;;;17.90;27.58;95164.63;5110158;28;20031;-68
2022/04/15 09:12:30;;;;;;;7.03;4.20;;;;;;;17.90;27.88;95154.13;5109962;28;20473;-68
2022/04/15 09:14:59;;;;;;;8.68;4.80;;;;;;;18.11;28.22;95159.72;5109905;28;20161;-68
2022/04/15 09:17:28;;;;;;;6.60;3.95;;;;;;;18.20;28.00;95148.19;5076090;28;20030;-68
2022/04/15 09:19:54;;;;;;;9.25;4.20;;;;;;;18.37;26.42;95150.81;5093132;28;20028;-68
2022/04/15 09:22:19;;;;;;;11.27;3.83;;;;;;;18.43;26.78;95147.50;5092930;28;20035;-69
2022/04/15 09:24:46;;;;;;;7.20;3.50;;;;;;;18.41;26.67;95136.31;5109884;28;20036;-68
2022/04/15 09:27:11;;;;;;;10.20;3.30;;;;;;;18.46;25.44;95134.00;5109762;28;20151;-68
2022/04/15 09:29:40;;;;;;;8.25;3.88;;;;;;;18.52;26.82;95123.63;5110964;28;20505;-69
2022/04/15 09:32:07;;;;;;;6.93;3.78;;;;;;;18.64;26.97;95126.75;5109823;28;20034;-69
2022/04/15 09:34:33;;;;;;;10.20;3.88;;;;;;;18.72;26.32;95123.25;5111400;28;20032;-69
2022/04/15 09:36:58;;;;;;;9.27;3.60;;;;;;;18.82;25.49;95117.84;5092601;28;20052;-69
2022/04/15 09:39:24;;;;;;;10.52;4.00;;;;;;;18.95;26.78;95111.03;5092857;28;20031;-68
2022/04/15 09:41:51;;;;;;;12.57;5.03;;;;;;;19.10;26.69;95115.56;5111184;28;20028;-69
2022/04/15 09:44:16;;;;;;;9.18;4.00;;;;;;;19.11;26.03;95106.66;5109682;28;20520;-68
2022/04/15 09:46:45;;;;;;;6.80;3.88;;;;;;;19.10;26.22;95100.59;5110810;28;20020;-69
2022/04/15 09:49:11;;;;;;;8.07;4.05;;;;;;;19.15;25.78;95093.00;5109602;28;20410;-68
2022/04/15 09:51:47;;;;;;;10.50;4.00;;;;;;;19.28;26.36;95097.72;5092558;28;20071;-68
2022/04/15 09:54:25;;;;;;;5.53;3.78;;;;;;;19.35;26.69;95088.09;5109795;28;20036;-69
2022/04/15 09:56:52;;;;;;;8.30;3.85;;;;;;;19.41;26.05;95079.50;5109479;28;20517;-68
2022/04/15 09:59:20;;;;;;;5.03;3.10;;;;;;;19.44;25.97;95086.22;5112848;28;20042;-68
2022/04/15 10:01:45;;;;;;;7.00;3.58;;;;;;;19.51;26.36;95081.91;5114495;28;20020;-68
2022/04/15 10:04:14;;;;;;;4.60;2.88;;;;;;;19.61;25.68;95074.59;5096411;28;20483;-69
2022/04/15 10:06:40;;;;;;;4.32;3.00;;;;;;;19.61;26.00;95061.44;5114448;27;20032;-68
2022/04/15 10:09:13;;;;;;;8.63;3.55;;;;;;;19.68;25.51;95058.94;5096231;28;20028;-69
2022/04/15 10:11:41;;;;;;;6.32;2.65;;;;;;;19.63;24.72;95054.16;5096908;28;20025;-69
2022/04/15 10:14:06;;;;;;;4.97;3.17;;;;;;;19.67;24.71;95045.91;5113234;28;20071;-69
2022/04/15 10:16:32;;;;;;;5.93;3.08;;;;;;;19.76;24.82;95047.50;5079133;28;20036;-68
2022/04/15 10:19:01;;;;;;;5.90;3.17;;;;;;;19.79;24.87;95050.59;5112951;28;20490;-68
2022/04/15 10:21:28;;;;;;;8.15;3.10;;;;;;;19.72;24.30;95043.56;5079282;28;20027;-68
2022/04/15 10:23:53;;;;;;;5.15;3.00;;;;;;;19.74;25.38;95044.22;5096023;28;20186;-68
2022/04/15 10:26:19;;;;;;;5.72;3.10;;;;;;;19.62;25.04;95031.44;5112869;28;20462;-69
2022/04/15 10:28:46;;;;;;;6.13;3.10;;;;;;;19.79;25.40;95047.16;5078904;28;20035;-68
2022/04/15 10:31:13;;;;;;;8.07;3.17;;;;;;;19.82;25.56;95037.06;5095747;28;20035;-68
2022/04/15 10:33:42;;;;;;;5.68;2.80;;;;;;;19.89;25.23;95034.50;5114240;28;20046;-68
2022/04/15 10:36:14;;;;;;;5.82;3.13;;;;;;;19.99;25.37;95023.72;5113745;28;20170;-69
2022/04/15 10:39:06;;;;;;;7.15;3.17;;;;;;;20.07;24.33;95032.38;5112628;28;20027;-69
2022/04/15 10:41:44;;;;;;;5.40;3.03;;;;;;;19.98;25.67;95025.56;5113759;28;20028;-69
2022/04/15 10:44:14;;;;;;;5.82;2.97;;;;;;;20.06;26.19;95024.66;5113932;28;20036;-69
2022/04/15 10:46:40;;;;;;;5.78;3.13;;;;;;;19.97;24.96;95008.06;5095616;28;20048;-68
2022/04/15 10:49:23;;;;;;;5.07;3.00;;;;;;;20.22;25.16;95016.56;5112496;28;20074;-68
2022/04/15 10:51:51;;;;;;;4.90;3.13;;;;;;;20.24;25.73;95013.75;5095514;28;20084;-68
2022/04/15 10:54:36;;;;;;;5.53;3.42;;;;;;;20.26;25.87;95017.84;5112452;28;20032;-68
2022/04/15 10:57:11;;;;;;;8.60;3.70;;;;;;;20.28;24.76;95010.56;5113474;28;20032;-68
2022/04/15 11:02:22;;;;;;;6.43;3.20;;;;;;;20.43;25.80;94986.81;5113362;28;20035;-68
2022/04/15 11:04:51;;;;;;;7.22;3.17;;;;;;;20.59;25.38;94987.63;5095117;28;20040;-69
2022/04/15 11:07:26;;;;;;;5.60;3.03;;;;;;;20.51;25.24;94989.34;5078252;28;20523;-69
2022/04/15 11:09:52;;;;;;;4.93;2.85;;;;;;;20.66;24.21;94983.25;5094408;28;20069;-68
2022/04/15 11:12:42;;;;;;;10.20;2.95;;;;;;;20.72;24.10;94991.25;5112056;28;20421;-69
2022/04/15 11:15:08;;;;;;;6.07;3.03;;;;;;;20.72;23.85;94985.16;5106141;28;20032;-69
2022/04/15 11:17:44;;;;;;;6.03;2.60;;;;;;;20.85;24.87;94974.75;5094914;28;20066;-69
2022/04/15 11:20:10;;;;;;;7.95;2.88;;;;;;;20.83;22.02;94963.56;5095702;28;20036;-69
2022/04/15 11:22:39;;;;;;;7.95;2.78;;;;;;;20.89;21.82;94976.00;5094886;28;20034;-69
2022/04/15 11:25:09;;;;;;;5.38;2.80;;;;;;;20.87;21.32;94967.47;5095044;28;20039;-68
2022/04/15 11:27:35;;;;;;;6.53;3.20;;;;;;;21.00;22.09;94976.53;5113163;28;20027;-69
2022/04/15 11:30:05;;;;;;;4.18;2.80;;;;;;;21.20;22.27;94967.81;5094655;28;20401;-69
2022/04/15 11:32:30;;;;;;;6.22;2.95;;;;;;;21.32;21.74;94965.47;5111576;28;20022;-69
2022/04/15 11:34:56;;;;;;;5.65;3.10;;;;;;;21.46;22.82;94962.97;5113143;28;20031;-69
2022/04/15 11:37:21;;;;;;;7.72;3.20;;;;;;;21.56;21.93;94955.53;5112657;28;20462;-69